createdAt,value
2022-11-15T00:00:45.635Z,3.30
2022-11-15T00:03:33.040Z,2.90
2022-11-15T00:06:20.248Z,4.40
2022-11-15T00:09:08.610Z,3.53
2022-11-15T00:11:57.536Z,4.27
2022-11-15T00:14:44.122Z,4.00
2022-11-15T00:17:30.934Z,4.07
2022-11-15T00:20:18.194Z,4.27
2022-11-15T00:23:06.104Z,2.90
2022-11-15T00:26:00.272Z,2.90
2022-11-15T00:28:47.231Z,3.20
2022-11-15T00:31:33.793Z,3.10
2022-11-15T00:34:20.602Z,3.40
2022-11-15T00:37:08.297Z,3.37
2022-11-15T00:39:55.004Z,2.73
2022-11-15T00:42:43.374Z,3.13
2022-11-15T00:45:30.409Z,4.30
2022-11-15T00:48:17.396Z,3.30
2022-11-15T00:51:04.136Z,3.40
2022-11-15T00:53:50.909Z,2.80
2022-11-15T00:56:37.597Z,4.00
2022-11-15T00:59:25.450Z,2.50
2022-11-15T01:02:12.746Z,3.57
2022-11-15T01:04:59.588Z,3.87
2022-11-15T01:07:46.777Z,3.70
2022-11-15T01:10:35.264Z,3.40
2022-11-15T01:13:22.076Z,4.17
2022-11-15T01:16:11.927Z,3.50
2022-11-15T01:18:58.671Z,3.40
2022-11-15T01:21:45.255Z,3.33
2022-11-15T01:24:32.188Z,4.40
2022-11-15T01:27:19.324Z,3.33
2022-11-15T01:30:07.016Z,3.53
2022-11-15T01:32:55.577Z,3.83
2022-11-15T01:35:42.474Z,3.57
2022-11-15T01:38:29.394Z,2.90
2022-11-15T01:41:21.943Z,3.40
2022-11-15T01:44:39.194Z,3.30
2022-11-15T01:47:28.340Z,2.90
2022-11-15T01:50:19.558Z,3.30
2022-11-15T01:53:06.152Z,3.80
2022-11-15T01:55:53.013Z,3.23
2022-11-15T01:58:41.031Z,3.00
2022-11-15T02:01:28.789Z,2.83
2022-11-15T02:04:18.348Z,3.97
2022-11-15T02:07:08.706Z,2.93
2022-11-15T02:09:56.758Z,3.50
2022-11-15T02:12:44.441Z,3.13
2022-11-15T02:15:39.377Z,3.10
2022-11-15T02:18:33.652Z,3.30
2022-11-15T02:21:28.505Z,3.63
2022-11-15T02:24:50.941Z,3.70
2022-11-15T02:28:03.492Z,3.53
2022-11-15T02:30:57.422Z,3.10
2022-11-15T02:33:54.142Z,3.50
2022-11-15T02:36:46.376Z,2.50
2022-11-15T02:39:40.520Z,3.57
2022-11-15T02:42:48.341Z,3.00
2022-11-15T02:45:41.775Z,3.47
2022-11-15T02:48:32.382Z,3.73
2022-11-15T02:51:19.660Z,3.80
2022-11-15T02:54:06.776Z,3.37
2022-11-15T02:56:56.845Z,3.30
2022-11-15T03:00:08.492Z,2.70
2022-11-15T03:03:09.082Z,2.93
2022-11-15T03:06:06.654Z,2.67
2022-11-15T03:09:03.919Z,2.60
2022-11-15T03:12:06.255Z,3.13
2022-11-15T03:14:59.550Z,2.60
2022-11-15T03:17:53.723Z,3.60
2022-11-15T03:20:41.958Z,2.90
2022-11-15T03:23:32.754Z,3.30
2022-11-15T03:26:22.173Z,3.63
2022-11-15T03:29:14.451Z,3.63
2022-11-15T03:32:08.545Z,3.03
2022-11-15T03:34:59.607Z,3.03
2022-11-15T03:37:50.475Z,3.13
2022-11-15T03:40:41.723Z,2.77
2022-11-15T03:43:37.563Z,3.37
2022-11-15T03:46:28.944Z,3.20
2022-11-15T03:49:21.776Z,2.87
2022-11-15T03:52:08.666Z,3.10
2022-11-15T03:54:57.236Z,3.00
2022-11-15T03:57:45.578Z,2.70
2022-11-15T04:00:32.554Z,3.67
2022-11-15T04:03:19.313Z,3.10
2022-11-15T04:06:06.761Z,3.50
2022-11-15T04:08:53.837Z,3.10
2022-11-15T04:11:40.433Z,3.90
2022-11-15T04:14:28.480Z,3.13
2022-11-15T04:17:15.474Z,2.40
2022-11-15T04:20:19.580Z,3.50
2022-11-15T04:23:25.751Z,2.70
2022-11-15T04:26:14.953Z,2.97
2022-11-15T04:29:19.044Z,3.10
2022-11-15T04:32:08.688Z,3.20
2022-11-15T04:34:55.631Z,2.90
2022-11-15T04:37:47.927Z,3.10
2022-11-15T04:40:36.407Z,3.53
2022-11-15T04:43:23.708Z,3.37
2022-11-15T04:46:10.614Z,3.20
2022-11-15T04:48:59.466Z,3.40
2022-11-15T04:51:46.716Z,3.07
2022-11-15T04:54:33.194Z,3.63
2022-11-15T04:57:20.420Z,2.87
2022-11-15T05:00:09.787Z,3.30
2022-11-15T05:03:14.928Z,2.77
2022-11-15T05:06:03.450Z,3.03
2022-11-15T05:08:50.279Z,3.53
2022-11-15T05:11:37.106Z,2.70
2022-11-15T05:14:25.651Z,2.77
2022-11-15T05:17:15.770Z,2.57
2022-11-15T05:20:04.805Z,2.10
2022-11-15T05:22:58.558Z,2.50
2022-11-15T05:25:48.828Z,2.40
2022-11-15T05:28:40.320Z,1.87
2022-11-15T05:31:31.339Z,3.13
2022-11-15T05:34:24.989Z,2.23
2022-11-15T05:37:14.677Z,3.03
2022-11-15T05:40:03.182Z,2.10
2022-11-15T05:42:50.595Z,2.80
2022-11-15T05:45:38.451Z,2.67
2022-11-15T05:48:25.211Z,3.03
2022-11-15T05:51:14.568Z,2.30
2022-11-15T05:54:02.395Z,2.27
2022-11-15T05:56:51.389Z,2.20
2022-11-15T05:59:38.711Z,3.07
2022-11-15T06:02:25.476Z,2.33
2022-11-15T06:05:12.438Z,2.37
2022-11-15T06:08:00.465Z,1.67
2022-11-15T06:16:45.487Z,2.57
2022-11-15T06:19:33.819Z,2.37
2022-11-15T06:22:20.434Z,2.50
2022-11-15T06:25:07.604Z,2.50
2022-11-15T06:27:54.514Z,1.67
2022-11-15T06:30:41.358Z,3.30
2022-11-15T06:33:29.460Z,2.70
2022-11-15T06:36:18.349Z,2.30
2022-11-15T06:39:05.069Z,3.10
2022-11-15T06:41:51.925Z,2.50
2022-11-15T06:44:38.490Z,2.03
2022-11-15T06:47:25.578Z,1.80
2022-11-15T06:50:13.957Z,2.33
2022-11-15T06:53:04.237Z,2.50
2022-11-15T06:55:55.206Z,2.30
2022-11-15T06:58:42.287Z,1.90
2022-11-15T07:01:29.443Z,1.70
2022-11-15T07:04:16.381Z,1.77
2022-11-15T07:07:04.666Z,1.20
2022-11-15T07:09:51.475Z,1.40
2022-11-15T07:12:38.276Z,1.23
2022-11-15T07:15:27.654Z,1.00
2022-11-15T07:18:14.473Z,1.03
2022-11-15T07:21:04.251Z,1.07
2022-11-15T07:23:52.509Z,1.00
2022-11-15T07:26:39.318Z,0.60
2022-11-15T07:29:25.897Z,1.00
2022-11-15T07:32:12.854Z,0.80
2022-11-15T07:34:59.816Z,0.80
2022-11-15T07:37:46.406Z,1.90
2022-11-15T07:40:34.454Z,0.90
2022-11-15T07:43:21.587Z,0.90
2022-11-15T07:46:10.243Z,0.90
2022-11-15T07:48:56.866Z,0.70
2022-11-15T07:51:43.762Z,1.10
2022-11-15T07:54:30.365Z,0.70
2022-11-15T07:57:18.769Z,0.80
2022-11-15T08:00:06.525Z,1.00
2022-11-15T08:02:53.234Z,0.90
2022-11-15T08:05:41.460Z,0.70
2022-11-15T08:08:28.093Z,0.70
2022-11-15T08:11:14.727Z,0.97
2022-11-15T08:14:02.978Z,0.93
2022-11-15T08:16:49.965Z,0.80
2022-11-15T08:19:36.902Z,0.90
2022-11-15T08:22:23.891Z,1.10
2022-11-15T08:25:10.532Z,0.70
2022-11-15T08:27:59.549Z,0.90
2022-11-15T08:30:47.774Z,0.70
2022-11-15T08:33:35.447Z,0.70
2022-11-15T08:36:23.510Z,0.70
2022-11-15T08:39:12.627Z,0.90
2022-11-15T08:41:59.543Z,0.90
2022-11-15T08:44:46.449Z,0.90
2022-11-15T08:47:35.085Z,0.80
2022-11-15T08:50:21.988Z,0.90
2022-11-15T08:53:09.701Z,1.23
2022-11-15T08:55:56.300Z,0.70
2022-11-15T08:58:44.113Z,1.07
2022-11-15T09:01:30.752Z,1.00
2022-11-15T09:04:19.135Z,0.87
2022-11-15T09:07:05.514Z,1.10
2022-11-15T09:09:52.292Z,1.00
2022-11-15T09:12:39.110Z,0.90
2022-11-15T09:15:25.640Z,0.70
2022-11-15T09:18:12.500Z,1.03
2022-11-15T09:21:01.626Z,0.80
2022-11-15T09:23:48.361Z,1.10
2022-11-15T09:26:35.230Z,0.70
2022-11-15T09:29:21.941Z,1.27
2022-11-15T09:32:08.829Z,1.00
2022-11-15T09:34:55.470Z,1.00
2022-11-15T09:37:44.134Z,0.80
2022-11-15T09:40:33.476Z,0.70
2022-11-15T09:43:31.541Z,0.77
2022-11-15T09:46:29.945Z,0.90
2022-11-15T09:49:11.974Z,1.10
2022-11-15T09:51:47.722Z,1.20
2022-11-15T09:57:19.687Z,0.97
2022-11-15T10:03:12.281Z,0.80
2022-11-15T10:05:44.470Z,1.00
2022-11-15T10:08:25.298Z,1.00
2022-11-15T10:11:35.620Z,0.97
2022-11-15T10:13:55.068Z,1.20
2022-11-15T10:16:52.063Z,1.40
2022-11-15T10:19:26.281Z,0.80
2022-11-15T10:22:06.121Z,0.80
2022-11-15T10:24:39.091Z,0.70
2022-11-15T10:27:13.869Z,0.77
2022-11-15T10:29:46.299Z,1.00
2022-11-15T10:32:15.601Z,0.63
2022-11-15T10:34:44.144Z,0.90
2022-11-15T10:37:12.425Z,0.80
2022-11-15T10:39:40.633Z,0.80
2022-11-15T10:42:27.237Z,0.93
2022-11-15T10:44:56.084Z,0.70
2022-11-15T10:47:27.184Z,1.00
2022-11-15T10:50:01.116Z,0.80
2022-11-15T10:52:31.014Z,1.00
2022-11-15T10:55:05.237Z,0.70
2022-11-15T10:57:40.094Z,0.70
2022-11-15T11:00:28.067Z,0.90
2022-11-15T11:03:00.636Z,0.97
2022-11-15T11:05:36.577Z,0.77
2022-11-15T11:08:25.609Z,0.70
2022-11-15T11:11:02.553Z,0.73
2022-11-15T11:13:35.302Z,0.70
2022-11-15T11:16:22.076Z,0.90
2022-11-15T11:18:58.657Z,0.80
2022-11-15T11:21:40.017Z,0.80
2022-11-15T11:24:16.959Z,0.80
2022-11-15T11:26:56.723Z,1.37
2022-11-15T11:29:39.246Z,0.60
2022-11-15T11:32:21.299Z,0.83
2022-11-15T11:34:57.623Z,0.77
2022-11-15T11:37:32.854Z,1.10
2022-11-15T11:40:16.341Z,0.60
2022-11-15T11:42:55.048Z,0.80
2022-11-15T11:45:36.290Z,0.70
2022-11-15T11:48:14.848Z,0.70
2022-11-15T11:50:46.619Z,0.77
2022-11-15T11:53:20.189Z,0.80
2022-11-15T11:55:52.221Z,0.87
2022-11-15T11:58:24.176Z,0.60
2022-11-15T12:00:58.057Z,0.60
2022-11-15T12:03:31.460Z,0.70
2022-11-15T12:06:03.248Z,1.03
2022-11-15T12:08:47.874Z,0.70
2022-11-15T12:11:20.318Z,0.70
2022-11-15T12:13:52.573Z,0.87
2022-11-15T12:16:28.789Z,0.70
2022-11-15T12:19:00.842Z,0.70
2022-11-15T12:21:39.475Z,0.60
2022-11-15T12:24:13.714Z,0.70
2022-11-15T12:26:48.116Z,0.60
2022-11-15T12:29:22.271Z,0.80
2022-11-15T12:31:56.561Z,0.90
2022-11-15T12:34:45.189Z,1.00
2022-11-15T12:37:58.184Z,0.90
2022-11-15T12:40:34.747Z,0.70
2022-11-15T12:43:41.395Z,0.70
2022-11-15T12:46:20.813Z,0.97
2022-11-15T12:48:53.922Z,0.60
2022-11-15T12:51:24.400Z,0.80
2022-11-15T12:53:52.673Z,0.60
2022-11-15T12:56:25.292Z,0.60
2022-11-15T12:58:57.171Z,0.87
2022-11-15T13:02:02.362Z,0.60
2022-11-15T13:04:33.297Z,0.60
2022-11-15T13:07:04.087Z,0.80
2022-11-15T13:09:58.059Z,0.60
2022-11-15T13:12:51.728Z,0.80
2022-11-15T13:15:54.270Z,0.80
2022-11-15T13:18:35.157Z,0.60
2022-11-15T13:21:28.230Z,0.67
2022-11-15T13:23:57.361Z,0.60
2022-11-15T13:26:25.886Z,0.60
2022-11-15T13:28:56.435Z,0.63
2022-11-15T13:31:38.712Z,0.67
2022-11-15T13:34:49.263Z,0.93
2022-11-15T13:37:30.782Z,0.80
2022-11-15T13:40:17.856Z,0.90
2022-11-15T13:42:46.103Z,0.70
2022-11-15T13:45:17.362Z,0.80
2022-11-15T13:47:45.512Z,0.90
2022-11-15T13:50:14.510Z,1.20
2022-11-15T13:52:46.840Z,0.80
2022-11-15T13:55:17.568Z,1.00
2022-11-15T13:57:48.172Z,3.43
2022-11-15T14:00:30.967Z,2.20
2022-11-15T14:03:06.900Z,0.87
2022-11-15T14:05:35.190Z,1.20
2022-11-15T14:08:14.500Z,0.90
2022-11-15T14:10:42.568Z,1.40
2022-11-15T14:13:29.381Z,1.00
2022-11-15T14:16:15.873Z,0.60
2022-11-15T14:18:47.479Z,0.73
2022-11-15T14:21:16.513Z,0.70
2022-11-15T14:23:46.197Z,1.03
2022-11-15T14:26:30.089Z,0.77
2022-11-15T14:28:58.323Z,0.97
2022-11-15T14:31:26.403Z,1.00
2022-11-15T14:33:54.486Z,0.93
2022-11-15T14:36:23.986Z,0.67
2022-11-15T14:38:55.203Z,1.10
2022-11-15T14:41:25.329Z,0.90
2022-11-15T14:43:54.471Z,0.70
2022-11-15T14:46:22.676Z,0.77
2022-11-15T14:48:51.330Z,0.80
2022-11-15T14:51:20.740Z,0.90
2022-11-15T14:53:49.754Z,1.00
2022-11-15T14:56:19.242Z,0.90
2022-11-15T14:58:47.404Z,0.70
2022-11-15T15:01:19.342Z,1.23
2022-11-15T15:03:47.461Z,0.80
2022-11-15T15:06:18.200Z,1.00
2022-11-15T15:08:46.948Z,1.20
2022-11-15T15:11:18.905Z,0.87
2022-11-15T15:13:46.953Z,0.90
2022-11-15T15:16:15.089Z,1.00
2022-11-15T15:18:43.112Z,1.20
2022-11-15T15:21:21.663Z,0.90
2022-11-15T15:23:49.851Z,1.50
2022-11-15T15:26:19.810Z,1.00
2022-11-15T15:28:49.493Z,1.10
2022-11-15T15:31:17.650Z,1.27
2022-11-15T15:33:45.884Z,1.10
2022-11-15T15:36:14.812Z,1.07
2022-11-15T15:38:43.030Z,1.33
2022-11-15T15:41:12.877Z,1.17
2022-11-15T15:43:42.898Z,1.20
2022-11-15T15:46:13.603Z,1.10
2022-11-15T15:48:42.013Z,0.87
2022-11-15T15:51:15.658Z,1.17
2022-11-15T15:53:48.171Z,1.60
2022-11-15T15:56:16.354Z,1.20
2022-11-15T15:58:45.785Z,1.37
2022-11-15T16:01:14.308Z,1.00
2022-11-15T16:03:42.337Z,1.20
2022-11-15T16:06:35.206Z,1.20
2022-11-15T16:09:19.309Z,1.10
2022-11-15T16:11:48.838Z,1.30
2022-11-15T16:14:18.471Z,1.20
2022-11-15T16:16:46.561Z,1.23
2022-11-15T16:19:14.587Z,1.20
2022-11-15T16:21:42.710Z,1.10
2022-11-15T16:24:10.833Z,0.90
2022-11-15T16:26:40.244Z,1.13
2022-11-15T16:29:10.231Z,1.40
2022-11-15T16:31:40.362Z,0.83
2022-11-15T16:34:08.868Z,1.57
2022-11-15T16:36:37.797Z,0.90
2022-11-15T16:39:05.970Z,0.90
2022-11-15T16:41:34.517Z,1.37
2022-11-15T16:44:02.664Z,1.03
2022-11-15T16:46:30.908Z,1.10
2022-11-15T16:49:00.368Z,1.47
2022-11-15T16:51:28.583Z,1.10
2022-11-15T16:56:47.916Z,1.10
2022-11-15T16:59:19.985Z,1.10
2022-11-15T17:01:50.526Z,1.10
2022-11-15T17:04:22.655Z,0.87
2022-11-15T17:06:51.312Z,0.87
2022-11-15T17:09:24.369Z,1.10
2022-11-15T17:11:52.777Z,1.00
2022-11-15T17:14:20.885Z,1.00
2022-11-15T17:16:48.936Z,1.00
2022-11-15T17:19:18.653Z,1.10
2022-11-15T17:21:50.330Z,1.00
2022-11-15T17:24:20.811Z,0.80
2022-11-15T17:26:49.045Z,1.10
2022-11-15T17:29:17.108Z,1.00
2022-11-15T17:31:45.203Z,1.33
2022-11-15T17:34:13.204Z,1.00
2022-11-15T17:36:41.226Z,0.87
2022-11-15T17:39:10.666Z,0.80
2022-11-15T17:41:38.674Z,0.90
2022-11-15T17:44:06.784Z,1.30
2022-11-15T17:46:36.347Z,1.10
2022-11-15T17:49:04.723Z,1.10
2022-11-15T17:51:32.908Z,1.10
2022-11-15T17:54:01.306Z,1.10
2022-11-15T17:56:31.432Z,1.27
2022-11-15T17:59:01.186Z,1.00
2022-11-15T18:01:30.811Z,1.20
2022-11-15T18:04:01.911Z,1.00
2022-11-15T18:06:33.018Z,1.00
2022-11-15T18:09:01.454Z,1.07
2022-11-15T18:11:32.724Z,1.30
2022-11-15T18:14:02.161Z,1.13
2022-11-15T18:16:31.951Z,1.00
2022-11-15T18:19:00.748Z,1.60
2022-11-15T18:21:30.681Z,1.53
2022-11-15T18:24:00.184Z,1.40
2022-11-15T18:26:31.297Z,1.23
2022-11-15T18:29:03.439Z,1.40
2022-11-15T18:31:32.922Z,1.20
2022-11-15T18:34:01.694Z,1.40
2022-11-15T18:36:31.409Z,1.23
2022-11-15T18:39:02.269Z,1.00
2022-11-15T18:41:32.920Z,1.10
2022-11-15T18:44:02.237Z,1.17
2022-11-15T18:46:32.562Z,1.30
2022-11-15T18:49:02.330Z,1.40
2022-11-15T18:51:31.837Z,1.67
2022-11-15T18:54:01.805Z,1.17
2022-11-15T18:56:33.066Z,1.77
2022-11-15T18:59:03.079Z,1.43
2022-11-15T19:01:33.820Z,1.30
2022-11-15T19:04:07.071Z,1.10
2022-11-15T19:06:38.832Z,1.27
2022-11-15T19:09:07.633Z,1.50
2022-11-15T19:11:39.326Z,1.20
2022-11-15T19:14:09.033Z,1.80
2022-11-15T19:16:38.655Z,1.10
2022-11-15T19:19:08.046Z,1.27
2022-11-15T19:21:36.332Z,1.97
2022-11-15T19:24:05.481Z,1.50
2022-11-15T19:26:36.764Z,1.40
2022-11-15T19:29:07.556Z,2.60
2022-11-15T19:31:35.800Z,1.63
2022-11-15T19:34:06.255Z,1.77
2022-11-15T19:36:35.851Z,1.40
2022-11-15T19:39:08.519Z,1.20
2022-11-15T19:41:38.314Z,1.27
2022-11-15T19:44:07.956Z,1.50
2022-11-15T19:46:36.253Z,1.47
2022-11-15T19:49:04.477Z,1.93
2022-11-15T19:51:33.305Z,1.67
2022-11-15T19:54:06.416Z,2.20
2022-11-15T19:56:35.911Z,1.50
2022-11-15T19:59:04.852Z,1.23
2022-11-15T20:01:38.732Z,1.53
2022-11-15T20:04:09.740Z,2.03
2022-11-15T20:06:40.320Z,1.40
2022-11-15T20:09:08.666Z,1.17
2022-11-15T20:11:38.102Z,1.67
2022-11-15T20:14:09.441Z,1.90
2022-11-15T20:16:39.052Z,1.93
2022-11-15T20:19:07.371Z,1.83
2022-11-15T20:21:35.839Z,1.40
2022-11-15T20:24:03.895Z,2.10
2022-11-15T20:26:32.237Z,1.70
2022-11-15T20:29:03.058Z,2.23
2022-11-15T20:31:32.120Z,1.97
2022-11-15T20:34:01.617Z,2.30
2022-11-15T20:36:29.944Z,1.23
2022-11-15T20:38:59.486Z,2.00
2022-11-15T20:41:28.382Z,2.20
2022-11-15T20:43:56.549Z,1.50
2022-11-15T20:46:24.659Z,1.70
2022-11-15T20:48:52.915Z,2.20
2022-11-15T20:51:22.619Z,2.17
2022-11-15T20:53:50.686Z,2.50
2022-11-15T20:56:20.877Z,1.70
2022-11-15T20:58:50.335Z,1.70
2022-11-15T21:01:23.198Z,1.83
2022-11-15T21:03:52.402Z,1.33
2022-11-15T21:06:22.331Z,2.80
2022-11-15T21:09:08.547Z,2.50
2022-11-15T21:11:54.389Z,2.40
2022-11-15T21:14:22.723Z,2.13
2022-11-15T21:16:50.771Z,2.77
2022-11-15T21:19:22.652Z,2.67
2022-11-15T21:21:55.253Z,2.23
2022-11-15T21:24:24.588Z,2.47
2022-11-15T21:26:53.134Z,2.13
2022-11-15T21:29:21.237Z,2.20
2022-11-15T21:31:50.994Z,2.20
2022-11-15T21:34:20.150Z,3.27
2022-11-15T21:36:48.255Z,3.10
2022-11-15T21:39:17.669Z,2.60
2022-11-15T21:41:45.770Z,2.43
2022-11-15T21:44:13.950Z,2.47
2022-11-15T21:46:42.115Z,2.33
2022-11-15T21:49:10.989Z,1.63
2022-11-15T21:51:39.323Z,2.67
2022-11-15T21:54:07.469Z,2.17
2022-11-15T21:56:37.294Z,2.37
2022-11-15T21:59:05.367Z,1.83
2022-11-15T22:01:50.887Z,2.40
2022-11-15T22:04:19.293Z,2.00
2022-11-15T22:06:47.469Z,2.90
2022-11-15T22:09:15.570Z,1.60
2022-11-15T22:11:45.171Z,2.60
2022-11-15T22:14:13.442Z,2.50
2022-11-15T22:16:41.538Z,2.70
2022-11-15T22:19:09.649Z,1.70
2022-11-15T22:21:39.745Z,3.17
2022-11-15T22:24:08.463Z,3.00
2022-11-15T22:26:36.723Z,3.77
2022-11-15T22:29:06.225Z,2.80
2022-11-15T22:31:34.455Z,2.80
2022-11-15T22:34:02.748Z,2.93
2022-11-15T22:36:46.905Z,2.53
2022-11-15T22:39:19.065Z,3.70
2022-11-15T22:41:47.302Z,2.73
2022-11-15T22:44:16.928Z,2.70
2022-11-15T22:46:45.123Z,2.37
2022-11-15T22:49:13.437Z,2.47
2022-11-15T22:51:41.784Z,2.63
2022-11-15T22:54:09.947Z,1.97
2022-11-15T22:56:38.423Z,2.03
2022-11-15T22:59:06.620Z,5.77
2022-11-15T23:01:36.467Z,2.60
2022-11-15T23:04:08.369Z,3.10
2022-11-15T23:06:36.499Z,2.60
2022-11-15T23:09:04.787Z,3.07
2022-11-15T23:11:50.610Z,1.83
2022-11-15T23:14:18.749Z,3.23
2022-11-15T23:16:48.598Z,2.67
2022-11-15T23:19:16.881Z,1.63
2022-11-15T23:22:04.523Z,2.57
2022-11-15T23:24:33.432Z,2.07
2022-11-15T23:27:04.264Z,3.90
2022-11-15T23:29:32.445Z,3.70
2022-11-15T23:32:19.752Z,3.63
2022-11-15T23:34:48.136Z,2.53
2022-11-15T23:37:17.240Z,2.47
2022-11-15T23:39:45.532Z,2.80
2022-11-15T23:42:19.802Z,3.50
2022-11-15T23:44:50.837Z,2.60
2022-11-15T23:47:21.384Z,2.60
2022-11-15T23:49:49.737Z,2.93
2022-11-15T23:52:18.096Z,3.67
2022-11-15T23:54:46.341Z,3.60
2022-11-15T23:57:14.797Z,2.10
2022-11-15T23:59:44.061Z,2.87
